createdAt,value
2022-12-26T00:01:24.060Z,17.13
2022-12-26T00:03:26.494Z,14.43
2022-12-26T00:05:28.873Z,20.40
2022-12-26T00:07:30.928Z,13.13
2022-12-26T00:09:33.966Z,16.30
2022-12-26T00:11:36.822Z,18.17
2022-12-26T00:13:42.758Z,16.27
2022-12-26T00:15:45.193Z,15.80
2022-12-26T00:17:47.136Z,16.77
2022-12-26T00:19:49.266Z,16.60
2022-12-26T00:21:51.255Z,18.83
2022-12-26T00:23:56.082Z,15.17
2022-12-26T00:26:05.465Z,14.87
2022-12-26T00:28:07.766Z,17.53
2022-12-26T00:30:10.216Z,17.47
2022-12-26T00:32:12.203Z,20.70
2022-12-26T00:34:14.209Z,18.63
2022-12-26T00:36:19.660Z,18.90
2022-12-26T00:38:22.189Z,17.93
2022-12-26T00:40:24.279Z,19.27
2022-12-26T00:42:26.442Z,18.70
2022-12-26T00:44:28.807Z,18.37
2022-12-26T00:46:31.106Z,19.07
2022-12-26T00:48:33.517Z,19.57
2022-12-26T00:50:35.466Z,20.17
2022-12-26T00:52:40.230Z,21.03
2022-12-26T00:54:42.507Z,18.97
2022-12-26T00:56:44.710Z,22.00
2022-12-26T00:58:46.894Z,20.53
2022-12-26T01:00:49.929Z,17.57
2022-12-26T01:02:52.360Z,17.03
2022-12-26T01:04:54.493Z,17.57
2022-12-26T01:06:56.387Z,18.67
2022-12-26T01:08:59.874Z,14.27
2022-12-26T01:11:08.504Z,16.67
2022-12-26T01:13:11.092Z,17.33
2022-12-26T01:15:13.252Z,17.63
2022-12-26T01:17:15.297Z,15.57
2022-12-26T01:19:17.377Z,16.00
2022-12-26T01:21:19.552Z,16.63
2022-12-26T01:23:22.125Z,16.43
2022-12-26T01:25:24.634Z,19.03
2022-12-26T01:27:26.860Z,20.50
2022-12-26T01:29:29.698Z,15.77
2022-12-26T01:31:31.977Z,15.57
2022-12-26T01:33:38.064Z,19.20
2022-12-26T01:35:40.215Z,18.47
2022-12-26T01:37:42.354Z,15.17
2022-12-26T01:39:44.513Z,15.73
2022-12-26T01:41:46.952Z,14.77
2022-12-26T01:44:00.717Z,21.37
2022-12-26T01:46:02.979Z,18.27
2022-12-26T01:48:17.001Z,17.17
2022-12-26T01:50:38.056Z,14.20
2022-12-26T01:52:46.021Z,18.23
2022-12-26T01:54:51.720Z,16.30
2022-12-26T01:56:53.870Z,16.53
2022-12-26T01:59:06.666Z,13.53
2022-12-26T02:01:10.700Z,14.63
2022-12-26T02:03:32.814Z,14.00
2022-12-26T02:05:35.305Z,12.17
2022-12-26T02:07:41.126Z,13.13
2022-12-26T02:09:43.537Z,15.57
2022-12-26T02:12:35.105Z,15.87
2022-12-26T02:14:15.261Z,16.33
2022-12-26T02:16:19.577Z,20.70
2022-12-26T02:18:21.575Z,14.73
2022-12-26T02:20:27.778Z,17.13
2022-12-26T02:22:54.517Z,15.63
2022-12-26T02:25:49.359Z,15.90
2022-12-26T02:28:14.195Z,15.10
2022-12-26T02:30:56.522Z,15.83
2022-12-26T02:33:10.418Z,15.73
2022-12-26T02:35:37.581Z,14.73
2022-12-26T02:38:01.598Z,16.07
2022-12-26T02:40:27.181Z,19.23
2022-12-26T02:42:55.233Z,16.47
2022-12-26T02:45:41.969Z,16.57
2022-12-26T02:48:14.661Z,20.20
2022-12-26T02:51:12.588Z,20.17
2022-12-26T02:53:45.251Z,19.33
2022-12-26T02:56:08.410Z,18.20
2022-12-26T02:58:37.808Z,15.67
2022-12-26T03:01:02.893Z,16.83
2022-12-26T03:03:32.619Z,16.03
2022-12-26T03:06:22.910Z,14.77
2022-12-26T03:09:06.771Z,15.27
2022-12-26T03:11:28.549Z,12.47
2022-12-26T03:13:36.826Z,15.10
2022-12-26T03:16:13.411Z,14.63
2022-12-26T03:18:17.962Z,15.80
2022-12-26T03:20:35.128Z,16.03
2022-12-26T03:23:09.362Z,14.30
2022-12-26T03:25:36.497Z,11.63
2022-12-26T03:27:38.911Z,16.77
2022-12-26T03:29:59.472Z,12.00
2022-12-26T03:32:04.214Z,13.27
2022-12-26T03:34:19.676Z,15.07
2022-12-26T03:36:59.418Z,19.47
2022-12-26T03:39:09.898Z,14.73
2022-12-26T03:41:54.258Z,11.80
2022-12-26T03:44:34.431Z,12.53
2022-12-26T03:46:55.090Z,12.30
2022-12-26T03:49:27.714Z,13.10
2022-12-26T03:51:52.040Z,10.53
2022-12-26T03:54:22.794Z,12.03
2022-12-26T03:57:06.274Z,13.97
2022-12-26T03:59:32.593Z,14.30
2022-12-26T04:01:54.645Z,14.83
2022-12-26T04:04:18.762Z,15.93
2022-12-26T04:06:45.411Z,14.80
2022-12-26T04:09:48.368Z,17.10
2022-12-26T04:12:10.203Z,20.47
2022-12-26T04:14:37.639Z,19.27
2022-12-26T04:17:01.895Z,32.87
2022-12-26T04:19:26.080Z,35.80
2022-12-26T04:21:55.732Z,27.30
2022-12-26T04:24:22.438Z,18.60
2022-12-26T04:26:53.682Z,16.60
2022-12-26T04:30:05.669Z,11.43
2022-12-26T04:32:35.319Z,18.60
2022-12-26T04:35:14.666Z,18.07
2022-12-26T04:37:43.192Z,18.00
2022-12-26T04:40:08.418Z,18.50
2022-12-26T04:42:31.066Z,14.53
2022-12-26T04:44:35.496Z,11.77
2022-12-26T04:46:41.540Z,11.27
2022-12-26T04:49:07.061Z,13.87
2022-12-26T04:51:09.277Z,17.00
2022-12-26T04:53:12.397Z,13.43
2022-12-26T04:55:14.591Z,16.70
2022-12-26T04:57:16.461Z,14.70
2022-12-26T04:59:19.202Z,10.67
2022-12-26T05:01:40.422Z,10.63
2022-12-26T05:04:01.103Z,11.20
2022-12-26T05:06:21.642Z,10.03
2022-12-26T05:08:49.813Z,14.83
2022-12-26T05:10:51.818Z,11.83
2022-12-26T05:12:54.757Z,10.73
2022-12-26T05:14:57.925Z,8.93
2022-12-26T05:17:19.387Z,13.27
2022-12-26T05:19:40.198Z,9.50
2022-12-26T05:22:01.116Z,6.87
2022-12-26T05:24:22.377Z,12.00
2022-12-26T05:26:43.027Z,11.10
2022-12-26T05:28:45.826Z,10.93
2022-12-26T05:30:48.084Z,10.20
2022-12-26T05:33:09.251Z,8.93
2022-12-26T05:35:11.533Z,7.60
2022-12-26T05:37:13.721Z,9.50
2022-12-26T05:39:16.486Z,9.60
2022-12-26T05:41:19.705Z,11.13
2022-12-26T05:43:21.910Z,16.57
2022-12-26T05:45:24.166Z,18.40
2022-12-26T05:47:26.111Z,17.07
2022-12-26T05:49:28.305Z,15.27
2022-12-26T05:51:30.694Z,17.57
2022-12-26T05:53:33.737Z,23.00
2022-12-26T05:55:35.929Z,25.77
2022-12-26T05:57:38.145Z,21.40
2022-12-26T05:59:40.239Z,26.77
2022-12-26T06:01:42.368Z,28.03
2022-12-26T06:03:49.449Z,22.13
2022-12-26T06:05:51.888Z,19.53
2022-12-26T06:07:53.786Z,16.77
2022-12-26T06:09:55.809Z,25.07
2022-12-26T06:11:57.837Z,29.03
2022-12-26T06:14:02.126Z,20.23
2022-12-26T06:16:10.235Z,13.97
2022-12-26T06:18:12.373Z,11.73
2022-12-26T06:20:14.620Z,10.00
2022-12-26T06:22:16.815Z,11.43
2022-12-26T06:24:18.956Z,11.17
2022-12-26T06:26:21.403Z,11.33
2022-12-26T06:28:24.716Z,13.33
2022-12-26T06:30:26.691Z,13.17
2022-12-26T06:32:28.644Z,12.37
2022-12-26T06:34:31.013Z,12.10
2022-12-26T06:36:32.889Z,11.57
2022-12-26T06:38:36.010Z,14.73
2022-12-26T06:40:43.894Z,12.10
2022-12-26T06:42:45.853Z,13.23
2022-12-26T06:44:48.944Z,18.27
2022-12-26T06:46:51.242Z,16.67
2022-12-26T06:48:54.126Z,26.03
2022-12-26T06:50:56.515Z,36.93
2022-12-26T06:52:58.677Z,37.37
2022-12-26T06:55:01.222Z,26.23
2022-12-26T06:57:03.368Z,23.80
2022-12-26T06:59:06.560Z,26.70
2022-12-26T07:01:17.555Z,28.07
2022-12-26T07:03:19.718Z,30.33
2022-12-26T07:05:22.252Z,36.07
2022-12-26T07:07:24.285Z,32.00
2022-12-26T07:09:33.126Z,28.20
2022-12-26T07:11:37.914Z,20.70
2022-12-26T07:13:39.922Z,23.57
2022-12-26T07:15:41.986Z,24.53
2022-12-26T07:17:44.056Z,36.73
2022-12-26T07:19:48.833Z,30.60
2022-12-26T07:21:51.153Z,28.97
2022-12-26T07:23:54.793Z,27.90
2022-12-26T07:25:57.038Z,28.80
2022-12-26T07:28:00.747Z,23.17
2022-12-26T07:30:02.836Z,18.60
2022-12-26T07:32:05.229Z,18.40
2022-12-26T07:34:10.770Z,12.97
2022-12-26T07:36:12.873Z,14.80
2022-12-26T07:38:15.016Z,11.00
2022-12-26T07:40:17.837Z,13.90
2022-12-26T07:42:20.625Z,14.90
2022-12-26T07:44:23.470Z,15.73
2022-12-26T07:46:25.635Z,22.67
2022-12-26T07:48:30.308Z,27.20
2022-12-26T07:50:32.462Z,52.80
2022-12-26T07:52:34.432Z,70.90
2022-12-26T07:54:36.606Z,50.60
2022-12-26T07:56:39.286Z,42.37
2022-12-26T07:58:41.650Z,34.13
2022-12-26T08:00:43.756Z,34.60
2022-12-26T08:02:49.624Z,51.70
2022-12-26T08:04:52.515Z,45.87
2022-12-26T08:06:55.657Z,41.43
2022-12-26T08:08:58.381Z,38.23
2022-12-26T08:11:05.995Z,30.53
2022-12-26T08:13:09.063Z,29.83
2022-12-26T08:15:12.957Z,29.20
2022-12-26T08:17:15.228Z,31.27
2022-12-26T08:19:17.561Z,30.67
2022-12-26T08:21:19.597Z,26.03
2022-12-26T08:23:22.012Z,27.57
2022-12-26T08:25:24.030Z,25.03
2022-12-26T08:27:26.257Z,23.97
2022-12-26T08:29:28.678Z,22.43
2022-12-26T08:31:30.763Z,20.43
2022-12-26T08:34:35.834Z,17.93
2022-12-26T08:36:38.336Z,13.13
2022-12-26T08:38:41.155Z,14.30
2022-12-26T08:40:44.390Z,12.00
2022-12-26T08:43:11.776Z,15.67
2022-12-26T08:45:09.039Z,12.82
2022-12-26T08:47:11.253Z,7.75
2022-12-26T08:49:13.842Z,5.10
2022-12-26T08:51:24.055Z,4.27
2022-12-26T08:53:26.628Z,5.10
2022-12-26T08:55:28.776Z,3.77
2022-12-26T08:57:31.146Z,4.73
2022-12-26T08:59:33.168Z,3.87
2022-12-26T09:01:35.179Z,4.03
2022-12-26T09:03:37.554Z,2.92
2022-12-26T09:05:39.719Z,7.73
2022-12-26T09:07:41.947Z,4.88
2022-12-26T09:09:45.448Z,5.90
2022-12-26T09:11:47.517Z,3.67
2022-12-26T09:13:49.966Z,2.83
2022-12-26T09:15:52.480Z,4.57
2022-12-26T09:17:54.595Z,5.72
2022-12-26T09:19:56.648Z,16.63
2022-12-26T09:22:18.262Z,36.15
2022-12-26T09:24:20.525Z,41.08
2022-12-26T09:26:23.126Z,28.17
2022-12-26T09:28:25.334Z,42.85
2022-12-26T09:30:27.400Z,27.00
2022-12-26T09:32:34.101Z,26.33
2022-12-26T09:34:36.236Z,35.97
2022-12-26T09:36:39.478Z,32.00
2022-12-26T09:38:42.641Z,19.52
2022-12-26T09:41:24.673Z,22.25
2022-12-26T09:43:51.137Z,19.48
2022-12-26T09:46:11.477Z,13.10
2022-12-26T09:48:21.537Z,11.32
2022-12-26T09:50:29.603Z,10.38
2022-12-26T09:52:48.956Z,9.98
2022-12-26T09:54:56.604Z,9.23
2022-12-26T09:57:03.946Z,11.10
2022-12-26T09:59:24.592Z,9.05
2022-12-26T10:01:30.232Z,6.50
2022-12-26T10:03:46.951Z,6.43
2022-12-26T10:06:09.489Z,5.05
2022-12-26T10:08:45.739Z,6.40
2022-12-26T10:10:55.914Z,7.03
2022-12-26T10:13:03.927Z,4.18
2022-12-26T10:15:43.491Z,4.28
2022-12-26T10:18:13.447Z,5.40
2022-12-26T10:20:18.950Z,4.68
2022-12-26T10:22:35.304Z,7.68
2022-12-26T10:24:40.513Z,6.70
2022-12-26T10:26:51.481Z,4.55
2022-12-26T10:28:59.510Z,6.93
2022-12-26T10:31:06.347Z,5.10
2022-12-26T10:33:22.953Z,7.57
2022-12-26T10:35:33.897Z,5.43
2022-12-26T10:37:41.011Z,6.50
2022-12-26T10:40:12.111Z,4.03
2022-12-26T10:42:38.286Z,6.35
2022-12-26T10:44:41.201Z,6.10
2022-12-26T10:47:14.445Z,6.30
2022-12-26T10:49:20.504Z,5.57
2022-12-26T10:51:22.899Z,4.80
2022-12-26T10:53:25.135Z,4.63
2022-12-26T10:55:31.568Z,4.57
2022-12-26T10:57:37.040Z,4.97
2022-12-26T10:59:44.286Z,5.57
2022-12-26T11:01:50.050Z,7.80
2022-12-26T11:03:58.048Z,5.10
2022-12-26T11:06:08.397Z,5.95
2022-12-26T11:08:30.847Z,7.03
2022-12-26T11:10:33.329Z,6.13
2022-12-26T11:12:38.629Z,6.03
2022-12-26T11:14:44.694Z,8.25
2022-12-26T11:16:50.762Z,5.80
2022-12-26T11:18:53.354Z,6.88
2022-12-26T11:20:55.433Z,53.33
2022-12-26T11:23:27.628Z,44.13
2022-12-26T11:25:30.526Z,33.30
2022-12-26T11:27:33.018Z,35.65
2022-12-26T11:29:37.361Z,21.75
2022-12-26T11:32:01.083Z,31.95
2022-12-26T11:34:09.127Z,68.55
2022-12-26T11:36:24.137Z,87.90
2022-12-26T11:38:44.204Z,88.18
2022-12-26T11:41:12.142Z,57.40
2022-12-26T11:43:19.028Z,77.40
2022-12-26T11:45:25.569Z,50.55
2022-12-26T11:47:28.983Z,38.67
2022-12-26T11:49:38.034Z,95.40
2022-12-26T11:51:43.458Z,66.93
2022-12-26T11:53:45.337Z,43.70
2022-12-26T11:56:00.488Z,30.38
2022-12-26T11:58:18.070Z,26.95
2022-12-26T12:00:24.930Z,15.85
2022-12-26T12:02:34.270Z,12.95
2022-12-26T12:04:36.320Z,11.35
2022-12-26T12:06:58.774Z,13.68
2022-12-26T12:09:22.104Z,8.35
2022-12-26T12:11:40.023Z,7.05
2022-12-26T12:14:07.181Z,9.52
2022-12-26T12:16:35.479Z,10.52
2022-12-26T12:19:05.108Z,6.57
2022-12-26T12:21:21.866Z,5.47
2022-12-26T12:23:38.688Z,7.97
2022-12-26T12:26:02.857Z,7.55
2022-12-26T12:28:55.782Z,6.45
2022-12-26T12:31:09.555Z,6.85
2022-12-26T12:33:42.503Z,7.50
2022-12-26T12:35:54.616Z,13.38
2022-12-26T12:38:11.899Z,13.63
2022-12-26T12:40:14.553Z,12.30
2022-12-26T12:42:41.261Z,9.43
2022-12-26T12:45:12.081Z,8.05
2022-12-26T12:47:40.594Z,7.32
2022-12-26T12:49:52.984Z,8.00
2022-12-26T12:52:26.052Z,9.13
2022-12-26T12:54:37.119Z,6.82
2022-12-26T12:57:11.484Z,9.43
2022-12-26T12:59:21.034Z,7.22
2022-12-26T13:01:35.359Z,11.68
2022-12-26T13:03:51.568Z,8.77
2022-12-26T13:06:12.102Z,6.07
2022-12-26T13:08:22.751Z,7.32
2022-12-26T13:10:33.487Z,9.18
2022-12-26T13:12:41.888Z,6.80
2022-12-26T13:14:49.580Z,8.30
2022-12-26T13:17:01.810Z,7.18
2022-12-26T13:19:09.743Z,8.43
2022-12-26T13:21:14.352Z,8.80
2022-12-26T13:23:50.698Z,10.55
2022-12-26T13:26:20.849Z,10.98
2022-12-26T13:28:32.575Z,10.82
2022-12-26T13:30:35.965Z,14.25
2022-12-26T13:32:41.975Z,7.47
2022-12-26T13:34:47.907Z,11.35
2022-12-26T13:36:53.045Z,7.32
2022-12-26T13:39:01.670Z,8.43
2022-12-26T13:41:23.507Z,8.35
2022-12-26T13:43:44.508Z,10.93
2022-12-26T13:46:05.135Z,12.45
2022-12-26T13:48:13.047Z,8.95
2022-12-26T13:50:55.348Z,13.70
2022-12-26T13:53:03.036Z,11.05
2022-12-26T13:55:05.174Z,10.30
2022-12-26T13:57:25.843Z,14.95
2022-12-26T14:00:06.943Z,14.23
2022-12-26T14:02:49.748Z,7.70
2022-12-26T14:05:04.054Z,8.13
2022-12-26T14:07:15.384Z,10.70
2022-12-26T14:10:05.363Z,9.40
2022-12-26T14:12:25.799Z,7.20
2022-12-26T14:15:08.992Z,7.25
2022-12-26T14:17:25.997Z,7.43
2022-12-26T14:20:04.947Z,12.35
2022-12-26T14:22:31.287Z,15.88
2022-12-26T14:24:50.063Z,12.55
2022-12-26T14:27:16.915Z,10.43
2022-12-26T14:30:07.131Z,10.88
2022-12-26T14:32:53.759Z,7.25
2022-12-26T14:35:16.495Z,5.35
2022-12-26T14:37:18.440Z,6.88
2022-12-26T14:40:11.440Z,7.07
2022-12-26T14:42:38.806Z,7.22
2022-12-26T14:44:44.618Z,9.95
2022-12-26T14:46:49.775Z,10.27
2022-12-26T14:48:57.906Z,12.68
2022-12-26T14:51:28.674Z,8.77
2022-12-26T14:53:35.525Z,10.02
2022-12-26T14:55:47.228Z,9.98
2022-12-26T14:57:49.447Z,10.13
2022-12-26T15:00:32.720Z,11.93
2022-12-26T15:02:35.373Z,8.65
2022-12-26T15:05:05.738Z,9.32
2022-12-26T15:07:20.394Z,9.32
2022-12-26T15:09:44.000Z,12.02
2022-12-26T15:11:57.988Z,13.45
2022-12-26T15:14:29.570Z,11.10
2022-12-26T15:16:49.883Z,14.05
2022-12-26T15:19:16.458Z,12.20
2022-12-26T15:21:18.507Z,13.32
2022-12-26T15:23:32.589Z,14.98
2022-12-26T15:25:46.878Z,14.07
2022-12-26T15:27:58.016Z,14.55
2022-12-26T15:30:20.354Z,17.58
2022-12-26T15:32:56.124Z,17.75
2022-12-26T15:35:14.340Z,19.50
2022-12-26T15:37:26.728Z,16.65
2022-12-26T15:40:03.170Z,21.38
2022-12-26T15:42:49.938Z,16.25
2022-12-26T15:45:28.586Z,20.67
2022-12-26T15:47:36.524Z,19.38
2022-12-26T15:49:57.684Z,19.92
2022-12-26T15:52:37.328Z,21.20
2022-12-26T15:55:21.285Z,22.45
2022-12-26T15:57:39.289Z,22.33
2022-12-26T16:00:11.233Z,19.95
2022-12-26T16:02:28.631Z,20.73
2022-12-26T16:04:58.795Z,20.42
2022-12-26T16:07:19.273Z,22.00
2022-12-26T16:09:50.128Z,21.15
2022-12-26T16:11:57.858Z,20.65
2022-12-26T16:14:02.719Z,23.10
2022-12-26T16:16:05.478Z,20.45
2022-12-26T16:18:32.574Z,20.13
2022-12-26T16:20:53.331Z,22.63
2022-12-26T16:22:55.560Z,35.50
2022-12-26T16:24:57.588Z,36.30
2022-12-26T16:27:03.603Z,35.45
2022-12-26T16:29:06.571Z,49.00
2022-12-26T16:31:10.260Z,46.40
2022-12-26T16:33:14.873Z,53.40
2022-12-26T16:35:39.508Z,51.40
2022-12-26T16:37:43.120Z,144.07
2022-12-26T16:39:45.998Z,174.77
2022-12-26T16:42:06.183Z,130.63
2022-12-26T16:44:30.884Z,101.95
2022-12-26T16:46:33.573Z,71.63
2022-12-26T16:48:36.746Z,52.17
2022-12-26T16:51:06.365Z,39.28
2022-12-26T16:53:15.991Z,42.33
2022-12-26T16:55:42.313Z,30.47
2022-12-26T16:57:44.458Z,23.95
2022-12-26T16:59:57.793Z,17.17
2022-12-26T17:02:00.885Z,11.80
2022-12-26T17:04:12.034Z,12.23
2022-12-26T17:06:20.855Z,9.77
2022-12-26T17:08:23.231Z,12.85
2022-12-26T17:10:32.071Z,15.32
2022-12-26T17:12:37.286Z,18.27
2022-12-26T17:14:42.957Z,12.40
2022-12-26T17:16:45.106Z,15.00
2022-12-26T17:18:50.531Z,19.02
2022-12-26T17:20:52.782Z,17.38
2022-12-26T17:22:56.921Z,19.17
2022-12-26T17:25:17.330Z,16.08
2022-12-26T17:27:27.140Z,14.02
2022-12-26T17:29:48.459Z,11.90
2022-12-26T17:31:51.459Z,17.87
2022-12-26T17:33:56.843Z,56.88
2022-12-26T17:38:29.422Z,114.10
2022-12-26T17:40:39.510Z,108.88
2022-12-26T17:42:55.077Z,90.03
2022-12-26T17:44:58.167Z,75.05
2022-12-26T17:47:03.189Z,75.40
2022-12-26T17:49:05.321Z,70.33
2022-12-26T17:51:11.994Z,52.75
2022-12-26T17:53:29.711Z,49.08
2022-12-26T17:55:32.143Z,44.57
2022-12-26T17:57:34.357Z,36.20
2022-12-26T17:59:36.684Z,57.58
2022-12-26T18:01:38.996Z,69.43
2022-12-26T18:03:41.300Z,64.93
2022-12-26T18:05:43.981Z,53.13
2022-12-26T18:07:47.731Z,54.50
2022-12-26T18:09:50.122Z,55.43
2022-12-26T18:11:52.803Z,92.90
2022-12-26T18:13:54.945Z,79.13
2022-12-26T18:15:58.032Z,89.20
2022-12-26T18:18:00.259Z,56.37
2022-12-26T18:20:06.706Z,59.37
2022-12-26T18:22:14.868Z,66.83
2022-12-26T18:24:17.085Z,66.95
2022-12-26T18:26:26.708Z,102.05
2022-12-26T18:28:29.461Z,92.90
2022-12-26T18:30:31.757Z,85.87
2022-12-26T18:32:34.667Z,64.10
2022-12-26T18:34:37.209Z,50.05
2022-12-26T18:36:41.404Z,41.00
2022-12-26T18:38:44.311Z,42.92
2022-12-26T18:40:53.079Z,47.47
2022-12-26T18:42:55.502Z,99.43
2022-12-26T18:44:57.377Z,54.43
2022-12-26T18:46:59.449Z,48.43
2022-12-26T18:49:01.560Z,33.83
2022-12-26T18:51:06.061Z,24.73
2022-12-26T18:53:08.409Z,26.47
2022-12-26T18:55:10.807Z,28.33
2022-12-26T18:57:20.006Z,25.55
2022-12-26T18:59:22.184Z,23.20
2022-12-26T19:01:24.604Z,70.00
2022-12-26T19:03:27.228Z,61.53
2022-12-26T19:05:33.035Z,51.57
2022-12-26T19:07:35.165Z,57.10
2022-12-26T19:09:37.580Z,61.13
2022-12-26T19:11:40.688Z,42.22
2022-12-26T19:13:43.383Z,30.37
2022-12-26T19:15:47.199Z,31.23
2022-12-26T19:17:49.241Z,23.83
2022-12-26T19:19:51.304Z,20.43
2022-12-26T19:21:53.185Z,20.77
2022-12-26T19:23:55.516Z,22.08
2022-12-26T19:25:57.622Z,23.43
2022-12-26T19:27:59.917Z,22.93
2022-12-26T19:30:01.985Z,25.97
2022-12-26T19:32:04.362Z,22.83
2022-12-26T19:34:08.064Z,25.55
2022-12-26T19:36:10.405Z,23.42
2022-12-26T19:38:13.828Z,22.50
2022-12-26T19:40:21.199Z,18.98
2022-12-26T19:42:27.222Z,23.73
2022-12-26T19:44:30.508Z,14.98
2022-12-26T19:46:32.460Z,11.85
2022-12-26T19:48:35.878Z,12.63
2022-12-26T19:50:40.623Z,13.63
2022-12-26T19:52:42.786Z,9.27
2022-12-26T19:54:44.917Z,8.57
2022-12-26T19:56:47.417Z,10.98
2022-12-26T19:58:55.905Z,9.20
2022-12-26T20:01:06.426Z,13.07
2022-12-26T20:03:08.536Z,15.35
2022-12-26T20:05:10.711Z,16.85
2022-12-26T20:07:12.669Z,15.20
2022-12-26T20:09:16.022Z,35.72
2022-12-26T20:11:21.796Z,46.33
2022-12-26T20:13:24.109Z,37.05
2022-12-26T20:15:26.211Z,32.72
2022-12-26T20:17:28.328Z,20.63
2022-12-26T20:19:30.585Z,20.23
2022-12-26T20:21:32.823Z,19.73
2022-12-26T20:23:35.506Z,18.65
2022-12-26T20:25:38.691Z,17.83
2022-12-26T20:27:43.430Z,15.07
2022-12-26T20:29:45.590Z,36.00
2022-12-26T20:31:48.125Z,29.38
2022-12-26T20:33:51.580Z,27.58
2022-12-26T20:36:10.898Z,32.67
2022-12-26T20:38:12.899Z,95.82
2022-12-26T20:40:15.017Z,92.68
2022-12-26T20:42:17.491Z,82.72
2022-12-26T20:44:19.670Z,63.05
2022-12-26T20:46:24.723Z,43.40
2022-12-26T20:48:26.911Z,25.27
2022-12-26T20:50:28.953Z,28.05
2022-12-26T20:52:30.960Z,74.38
2022-12-26T20:54:32.906Z,46.85
2022-12-26T20:56:36.392Z,60.67
2022-12-26T20:58:39.102Z,40.50
2022-12-26T21:00:44.963Z,35.72
2022-12-26T21:02:47.241Z,38.08
2022-12-26T21:04:49.393Z,52.80
2022-12-26T21:06:51.633Z,43.45
2022-12-26T21:08:54.505Z,29.42
2022-12-26T21:10:56.796Z,73.75
2022-12-26T21:12:59.164Z,85.35
2022-12-26T21:15:01.298Z,77.72
2022-12-26T21:17:03.591Z,40.47
2022-12-26T21:19:12.611Z,46.30
2022-12-26T21:21:22.782Z,39.95
2022-12-26T21:23:24.931Z,32.78
2022-12-26T21:25:27.419Z,24.15
2022-12-26T21:27:29.763Z,22.63
2022-12-26T21:29:34.048Z,24.20
2022-12-26T21:31:39.937Z,22.45
2022-12-26T21:33:44.714Z,32.38
2022-12-26T21:35:50.927Z,28.80
2022-12-26T21:37:52.982Z,25.45
2022-12-26T21:39:55.188Z,20.50
2022-12-26T21:41:57.409Z,16.75
2022-12-26T21:43:59.455Z,12.52
2022-12-26T21:46:07.185Z,9.07
2022-12-26T21:48:09.985Z,6.75
2022-12-26T21:50:12.249Z,8.40
2022-12-26T21:52:14.534Z,7.05
2022-12-26T21:54:35.155Z,6.05
2022-12-26T21:56:37.236Z,6.50
2022-12-26T21:58:58.479Z,7.95
2022-12-26T22:01:00.674Z,7.45
2022-12-26T22:03:22.254Z,7.40
2022-12-26T22:05:26.974Z,8.38
2022-12-26T22:07:29.455Z,10.10
2022-12-26T22:09:31.781Z,9.15
2022-12-26T22:11:52.640Z,9.15
2022-12-26T22:13:54.908Z,9.98
2022-12-26T22:16:03.498Z,9.13
2022-12-26T22:18:06.641Z,11.32
2022-12-26T22:20:09.388Z,10.52
2022-12-26T22:22:11.469Z,9.43
2022-12-26T22:24:15.087Z,9.73
2022-12-26T22:26:18.529Z,9.25
2022-12-26T22:28:23.540Z,10.52
2022-12-26T22:30:25.909Z,11.20
2022-12-26T22:32:28.271Z,11.80
2022-12-26T22:34:30.250Z,11.10
2022-12-26T22:36:33.712Z,17.20
2022-12-26T22:38:39.656Z,11.38
2022-12-26T22:40:41.984Z,8.85
2022-12-26T22:42:44.001Z,8.68
2022-12-26T22:44:46.141Z,11.23
2022-12-26T22:46:48.705Z,8.00
2022-12-26T22:48:51.245Z,9.90
2022-12-26T22:50:55.632Z,8.85
2022-12-26T22:52:57.702Z,10.82
2022-12-26T22:54:59.750Z,9.20
2022-12-26T22:57:01.733Z,10.68
2022-12-26T22:59:03.647Z,9.88
2022-12-26T23:01:17.046Z,8.75
2022-12-26T23:03:20.145Z,9.02
2022-12-26T23:05:23.462Z,8.90
2022-12-26T23:07:25.707Z,11.07
2022-12-26T23:09:28.287Z,13.30
2022-12-26T23:11:35.144Z,15.85
2022-12-26T23:13:38.568Z,14.45
2022-12-26T23:16:09.666Z,13.02
2022-12-26T23:19:15.350Z,10.95
2022-12-26T23:21:39.152Z,12.90
2022-12-26T23:23:41.353Z,10.95
2022-12-26T23:25:43.401Z,9.80
2022-12-26T23:28:04.233Z,12.65
2022-12-26T23:30:19.538Z,13.48
2022-12-26T23:32:21.542Z,11.25
2022-12-26T23:34:23.685Z,11.18
2022-12-26T23:36:25.621Z,12.68
2022-12-26T23:38:27.925Z,13.18
2022-12-26T23:40:29.983Z,14.50
2022-12-26T23:42:32.072Z,19.02
2022-12-26T23:44:34.021Z,31.85
2022-12-26T23:46:36.265Z,25.73
2022-12-26T23:48:38.321Z,21.20
2022-12-26T23:50:40.707Z,24.27
2022-12-26T23:52:44.048Z,17.50
2022-12-26T23:54:46.161Z,16.40
2022-12-26T23:56:48.492Z,15.38
2022-12-26T23:58:50.619Z,14.70
